Atlantic - Newfoundland: Past 24 Hour Conditions

 

Englee

07:30 PM NST 22 November 2014
This table is a summary of hourly weather conditions for the past 24 hours.
Date / Time
(NST)
Wind(knots) Conditions Visibility(km) Pressure(kPa) Air tempC) Relative humidity(%) Dew pointC) Wind Chill
22 November 2014
19:30 WNW 19 gust 28 N/A N/A 99.9 -5 81 -8 -14
18:30 WNW 16 gust 26 N/A N/A 100.0 -5 82 -8 -13
17:30 W 15 gust 24 N/A N/A 100.0 -6 81 -9 -14
16:30 W 18 gust 31 N/A N/A 99.9 -6 80 -9 -15
15:30 W 23 gust 33 N/A N/A 99.9 -6 78 -9 -15
14:30 WNW 22 gust 32 N/A N/A 99.9 -6 77 -9 -15
13:30 WNW 28 gust 37 N/A N/A 99.8 -5 74 -9 -16
12:30 WNW 32 gust 39 N/A N/A 99.7 -5 74 -9 -16
11:30 WNW 27 gust 34 N/A N/A 99.8 -6 75 -9 -16
10:30 W 32 gust 41 N/A N/A 99.7 -6 77 -9 -17
9:30 WNW 31 N/A N/A 99.7 -7 82 -9 -18
8:30 WNW 32 gust 37 N/A N/A 99.6 -7 86 -9 -18
7:30 WNW 31 gust 37 N/A N/A 99.5 -7 84 -9 -18
6:30 WNW 30 gust 40 N/A N/A 99.4 -7 87 -9 -18
5:30 WNW 32 gust 43 N/A N/A 99.4 -7 85 -9 -18
4:30 WNW 28 gust 40 N/A N/A 99.4 -7 85 -9 -18
3:30 WNW 29 gust 36 N/A N/A 99.3 -7 84 -9 -18
2:30 WNW 20 gust 28 N/A N/A 99.4 -7 89 -8 -16
1:30 NW 22 gust 27 N/A N/A 99.3 -7 90 -8 -16
0:30 WNW 26 gust 31 N/A N/A 99.3 -6 89 -8 -17
21 November 2014
23:30 WNW 22 gust 27 N/A N/A 99.3 -6 90 -8 -16
22:30 WNW 16 gust 23 N/A N/A 99.3 -6 90 -8 -15
21:30 NW 20 N/A N/A 99.3 -6 89 -8 -15
20:30 WNW 22 gust 30 N/A N/A 99.2 -6 90 -7 -15
19:30 WNW 28 gust 36 N/A N/A 99.1 -5 88 -7 -15
 
Map of Atlantic - Newfoundland marine weather areas Southwestern Grand Banks - 44138 Banquereau - 44139 Tail of the Bank - 44140 Nickerson Bank - 44251 Northeast Burgeo Bank - 44255 Blanc-Sablon Airport Cap Whittle Chevery Natashquan Airport Heath Point Miscou Island Grand Étang Ingonish Beach North Mountain St.Paul Island J.A. Douglas McCurdy Sydney Airport Charlottetown Airport East Point North Cape Argentia Bonavista Burgeo Cape Race Corner Brook Daniel's Harbour Englee Ferolle Point La Scie Port aux Basques Rocky Harbour Sagona Island St. Anthony Airport St. John's Int'l Airport St. Lawrence Stephenville Airport Twillingate Winterland Wreckhouse Cartwright Airport Mary's Harbour Grates Cove Pool's Island Marticot Island Long Pond Îles de la Madeleine Airport
Legend: buoyBuoy land stationLand Station